Keota, Oklahoma
Current Conditions -  °F | °C
As of 1:55 AM on Saturday 25 Oct 2014 (Local Time) from KGZL Reporting Station
Clear Clear  
Wind Chill: 59°   Ceiling: Unl
Heat Index: 59°   Visibility: 10mi
Dew Point: 57°   Wind: 5mph
Humidity: 94%   Direction: 180°S
Pressure: 30.08"   Gusts: NA
Location:  35.26°N, 94.92°W
Report Text: KGZL 250655Z AUTO 18004KT 10SM CLR 15/14 A3008 RMK AO2
Loading
Personal Weather Stations






























Interactive Weather Map
Tropical Storm Tracking
New forecast layout! Learn more

10-Day Weather Forecast

Advertisements
Track Severe Weather on mobile